sensor_id;sensor_type;location;lat;lon;timestamp;temperature;humidity
67358;HTU21D;54240;51.096;5.878;2023-02-24T00:01:38;6.51;118.99
67358;HTU21D;54240;51.096;5.878;2023-02-24T00:04:07;6.51;118.99
67358;HTU21D;54240;51.096;5.878;2023-02-24T00:06:37;6.46;118.99
67358;HTU21D;54240;51.096;5.878;2023-02-24T00:09:07;6.40;118.99
67358;HTU21D;54240;51.096;5.878;2023-02-24T00:11:35;6.41;118.99
67358;HTU21D;54240;51.096;5.878;2023-02-24T00:14:05;6.42;118.99
67358;HTU21D;54240;51.096;5.878;2023-02-24T00:16:32;6.42;118.99
67358;HTU21D;54240;51.096;5.878;2023-02-24T00:18:59;6.42;118.99
67358;HTU21D;54240;51.096;5.878;2023-02-24T00:21:26;6.43;118.99
67358;HTU21D;54240;51.096;5.878;2023-02-24T00:23:53;6.44;118.99
67358;HTU21D;54240;51.096;5.878;2023-02-24T00:26:19;6.38;118.99
67358;HTU21D;54240;51.096;5.878;2023-02-24T00:28:45;6.39;118.99
67358;HTU21D;54240;51.096;5.878;2023-02-24T00:31:14;6.42;118.99
67358;HTU21D;54240;51.096;5.878;2023-02-24T00:33:42;6.45;118.99
67358;HTU21D;54240;51.096;5.878;2023-02-24T00:36:20;6.48;118.99
67358;HTU21D;54240;51.096;5.878;2023-02-24T00:38:57;6.46;118.99
67358;HTU21D;54240;51.096;5.878;2023-02-24T00:41:26;6.43;118.99
67358;HTU21D;54240;51.096;5.878;2023-02-24T00:44:01;6.41;118.99
67358;HTU21D;54240;51.096;5.878;2023-02-24T00:46:43;6.37;118.99
67358;HTU21D;54240;51.096;5.878;2023-02-24T00:49:13;6.41;118.99
67358;HTU21D;54240;51.096;5.878;2023-02-24T00:51:44;6.43;118.99
67358;HTU21D;54240;51.096;5.878;2023-02-24T00:54:12;6.46;118.99
67358;HTU21D;54240;51.096;5.878;2023-02-24T00:56:41;6.52;118.99
67358;HTU21D;54240;51.096;5.878;2023-02-24T00:59:09;6.51;118.99
67358;HTU21D;54240;51.096;5.878;2023-02-24T01:01:35;6.55;118.99
67358;HTU21D;54240;51.096;5.878;2023-02-24T01:04:04;6.46;118.99
67358;HTU21D;54240;51.096;5.878;2023-02-24T01:06:32;6.46;118.99
67358;HTU21D;54240;51.096;5.878;2023-02-24T01:08:59;6.46;118.99
67358;HTU21D;54240;51.096;5.878;2023-02-24T01:11:31;6.52;118.99
67358;HTU21D;54240;51.096;5.878;2023-02-24T01:14:19;6.50;118.99
67358;HTU21D;54240;51.096;5.878;2023-02-24T01:16:45;6.50;118.99
67358;HTU21D;54240;51.096;5.878;2023-02-24T01:19:20;6.46;118.99
67358;HTU21D;54240;51.096;5.878;2023-02-24T01:21:46;6.45;118.99
67358;HTU21D;54240;51.096;5.878;2023-02-24T01:24:18;6.44;118.99
67358;HTU21D;54240;51.096;5.878;2023-02-24T01:26:43;6.44;118.99
67358;HTU21D;54240;51.096;5.878;2023-02-24T01:29:09;6.40;118.99
67358;HTU21D;54240;51.096;5.878;2023-02-24T01:31:36;6.41;118.99
67358;HTU21D;54240;51.096;5.878;2023-02-24T01:34:03;6.38;118.99
67358;HTU21D;54240;51.096;5.878;2023-02-24T01:36:32;6.42;118.99
67358;HTU21D;54240;51.096;5.878;2023-02-24T01:39:00;6.39;118.99
67358;HTU21D;54240;51.096;5.878;2023-02-24T01:41:27;6.38;118.99
67358;HTU21D;54240;51.096;5.878;2023-02-24T01:44:02;6.20;118.99
67358;HTU21D;54240;51.096;5.878;2023-02-24T01:46:36;6.07;118.99
67358;HTU21D;54240;51.096;5.878;2023-02-24T01:49:20;5.89;118.99
67358;HTU21D;54240;51.096;5.878;2023-02-24T01:51:52;5.76;118.99
67358;HTU21D;54240;51.096;5.878;2023-02-24T01:54:24;5.76;118.99
67358;HTU21D;54240;51.096;5.878;2023-02-24T01:56:51;5.82;118.99
67358;HTU21D;54240;51.096;5.878;2023-02-24T01:59:19;5.90;118.99
67358;HTU21D;54240;51.096;5.878;2023-02-24T02:01:47;5.83;118.99
67358;HTU21D;54240;51.096;5.878;2023-02-24T02:07:13;5.82;118.99
67358;HTU21D;54240;51.096;5.878;2023-02-24T02:09:41;5.90;118.99
67358;HTU21D;54240;51.096;5.878;2023-02-24T02:12:09;5.92;118.99
67358;HTU21D;54240;51.096;5.878;2023-02-24T02:14:39;5.93;118.99
67358;HTU21D;54240;51.096;5.878;2023-02-24T02:20:02;5.84;118.99
67358;HTU21D;54240;51.096;5.878;2023-02-24T02:28:32;5.72;118.99
67358;HTU21D;54240;51.096;5.878;2023-02-24T02:34:02;5.81;118.99
67358;HTU21D;54240;51.096;5.878;2023-02-24T02:36:43;5.89;118.99
67358;HTU21D;54240;51.096;5.878;2023-02-24T02:39:22;5.96;118.99
67358;HTU21D;54240;51.096;5.878;2023-02-24T02:44:45;5.98;118.99
67358;HTU21D;54240;51.096;5.878;2023-02-24T02:47:26;6.02;118.99
67358;HTU21D;54240;51.096;5.878;2023-02-24T02:50:01;5.99;118.99
67358;HTU21D;54240;51.096;5.878;2023-02-24T02:52:40;5.86;118.99
67358;HTU21D;54240;51.096;5.878;2023-02-24T02:55:17;5.91;118.99
67358;HTU21D;54240;51.096;5.878;2023-02-24T02:57:52;5.93;118.99
67358;HTU21D;54240;51.096;5.878;2023-02-24T03:00:24;5.90;118.99
67358;HTU21D;54240;51.096;5.878;2023-02-24T03:02:58;5.95;118.99
67358;HTU21D;54240;51.096;5.878;2023-02-24T03:05:33;6.04;118.99
67358;HTU21D;54240;51.096;5.878;2023-02-24T03:08:05;6.08;118.99
67358;HTU21D;54240;51.096;5.878;2023-02-24T03:10:39;6.07;118.99
67358;HTU21D;54240;51.096;5.878;2023-02-24T03:13:09;6.07;118.99
67358;HTU21D;54240;51.096;5.878;2023-02-24T03:15:40;6.08;118.99
67358;HTU21D;54240;51.096;5.878;2023-02-24T03:18:18;5.97;118.99
67358;HTU21D;54240;51.096;5.878;2023-02-24T03:20:52;5.93;118.99
67358;HTU21D;54240;51.096;5.878;2023-02-24T03:23:25;5.76;118.99
67358;HTU21D;54240;51.096;5.878;2023-02-24T03:26:06;5.74;118.99
67358;HTU21D;54240;51.096;5.878;2023-02-24T03:28:47;5.69;118.99
67358;HTU21D;54240;51.096;5.878;2023-02-24T03:31:22;5.76;118.99
67358;HTU21D;54240;51.096;5.878;2023-02-24T03:34:39;5.70;118.99
67358;HTU21D;54240;51.096;5.878;2023-02-24T03:36:56;5.80;118.99
67358;HTU21D;54240;51.096;5.878;2023-02-24T03:39:24;5.85;118.99
67358;HTU21D;54240;51.096;5.878;2023-02-24T03:42:17;5.90;118.99
67358;HTU21D;54240;51.096;5.878;2023-02-24T03:44:44;5.92;118.99
67358;HTU21D;54240;51.096;5.878;2023-02-24T03:47:16;5.98;118.99
67358;HTU21D;54240;51.096;5.878;2023-02-24T03:49:46;6.00;118.99
67358;HTU21D;54240;51.096;5.878;2023-02-24T03:52:49;5.98;118.99
67358;HTU21D;54240;51.096;5.878;2023-02-24T04:01:43;5.83;118.99
67358;HTU21D;54240;51.096;5.878;2023-02-24T04:04:26;5.63;118.99
67358;HTU21D;54240;51.096;5.878;2023-02-24T04:07:25;5.69;118.99
67358;HTU21D;54240;51.096;5.878;2023-02-24T04:10:13;5.76;118.99
67358;HTU21D;54240;51.096;5.878;2023-02-24T04:12:54;5.77;118.99
67358;HTU21D;54240;51.096;5.878;2023-02-24T04:15:25;5.82;118.99
67358;HTU21D;54240;51.096;5.878;2023-02-24T04:17:59;5.87;118.99
67358;HTU21D;54240;51.096;5.878;2023-02-24T04:20:33;5.92;118.99
67358;HTU21D;54240;51.096;5.878;2023-02-24T04:23:13;5.92;118.99
67358;HTU21D;54240;51.096;5.878;2023-02-24T04:25:45;5.94;118.99
67358;HTU21D;54240;51.096;5.878;2023-02-24T04:28:13;5.91;118.99
67358;HTU21D;54240;51.096;5.878;2023-02-24T04:30:46;5.91;118.99
67358;HTU21D;54240;51.096;5.878;2023-02-24T04:33:13;5.79;118.99
67358;HTU21D;54240;51.096;5.878;2023-02-24T04:35:40;5.69;118.99
67358;HTU21D;54240;51.096;5.878;2023-02-24T04:38:10;5.61;118.99
67358;HTU21D;54240;51.096;5.878;2023-02-24T04:40:36;5.63;118.99
67358;HTU21D;54240;51.096;5.878;2023-02-24T04:43:02;5.46;118.99
67358;HTU21D;54240;51.096;5.878;2023-02-24T04:45:29;5.48;118.99
67358;HTU21D;54240;51.096;5.878;2023-02-24T04:47:57;5.43;118.99
67358;HTU21D;54240;51.096;5.878;2023-02-24T04:50:33;5.31;118.99
67358;HTU21D;54240;51.096;5.878;2023-02-24T04:53:02;5.24;118.99
67358;HTU21D;54240;51.096;5.878;2023-02-24T04:55:34;5.36;118.99
67358;HTU21D;54240;51.096;5.878;2023-02-24T04:58:06;5.42;118.99
67358;HTU21D;54240;51.096;5.878;2023-02-24T05:00:32;5.40;118.99
67358;HTU21D;54240;51.096;5.878;2023-02-24T05:03:04;5.46;118.99
67358;HTU21D;54240;51.096;5.878;2023-02-24T05:05:31;5.49;118.99
67358;HTU21D;54240;51.096;5.878;2023-02-24T05:08:05;5.40;118.99
67358;HTU21D;54240;51.096;5.878;2023-02-24T05:10:39;5.27;118.99
67358;HTU21D;54240;51.096;5.878;2023-02-24T05:13:07;5.23;118.99
67358;HTU21D;54240;51.096;5.878;2023-02-24T05:15:38;5.17;118.99
67358;HTU21D;54240;51.096;5.878;2023-02-24T05:18:07;5.17;118.99
67358;HTU21D;54240;51.096;5.878;2023-02-24T05:20:42;5.18;118.99
67358;HTU21D;54240;51.096;5.878;2023-02-24T05:23:32;5.19;118.99
67358;HTU21D;54240;51.096;5.878;2023-02-24T05:26:03;5.16;118.99
67358;HTU21D;54240;51.096;5.878;2023-02-24T05:28:36;5.11;118.99
67358;HTU21D;54240;51.096;5.878;2023-02-24T05:31:05;5.09;118.99
67358;HTU21D;54240;51.096;5.878;2023-02-24T05:33:36;5.05;118.99
67358;HTU21D;54240;51.096;5.878;2023-02-24T05:36:06;5.06;118.99
67358;HTU21D;54240;51.096;5.878;2023-02-24T05:38:33;5.05;118.99
67358;HTU21D;54240;51.096;5.878;2023-02-24T05:41:23;5.03;118.99
67358;HTU21D;54240;51.096;5.878;2023-02-24T05:43:58;5.04;118.99
67358;HTU21D;54240;51.096;5.878;2023-02-24T05:46:29;5.07;118.99
67358;HTU21D;54240;51.096;5.878;2023-02-24T05:49:02;5.08;118.99
67358;HTU21D;54240;51.096;5.878;2023-02-24T05:51:32;5.08;118.99
67358;HTU21D;54240;51.096;5.878;2023-02-24T05:54:06;5.08;118.99
67358;HTU21D;54240;51.096;5.878;2023-02-24T05:56:34;5.06;118.99
67358;HTU21D;54240;51.096;5.878;2023-02-24T05:59:02;5.04;118.99
67358;HTU21D;54240;51.096;5.878;2023-02-24T06:01:35;5.03;118.99
67358;HTU21D;54240;51.096;5.878;2023-02-24T06:04:04;5.02;118.99
67358;HTU21D;54240;51.096;5.878;2023-02-24T06:06:35;4.96;118.99
67358;HTU21D;54240;51.096;5.878;2023-02-24T06:09:03;4.93;118.99
67358;HTU21D;54240;51.096;5.878;2023-02-24T06:11:33;4.87;118.99
67358;HTU21D;54240;51.096;5.878;2023-02-24T06:14:00;4.82;118.99
67358;HTU21D;54240;51.096;5.878;2023-02-24T06:16:26;4.75;118.99
67358;HTU21D;54240;51.096;5.878;2023-02-24T06:18:52;4.69;118.99
67358;HTU21D;54240;51.096;5.878;2023-02-24T06:21:21;4.64;118.99
67358;HTU21D;54240;51.096;5.878;2023-02-24T06:23:47;4.69;118.99
67358;HTU21D;54240;51.096;5.878;2023-02-24T06:26:13;4.68;118.99
67358;HTU21D;54240;51.096;5.878;2023-02-24T06:28:46;4.71;118.99
67358;HTU21D;54240;51.096;5.878;2023-02-24T06:31:14;4.80;118.99
67358;HTU21D;54240;51.096;5.878;2023-02-24T06:33:41;4.77;118.99
67358;HTU21D;54240;51.096;5.878;2023-02-24T06:36:07;4.72;118.99
67358;HTU21D;54240;51.096;5.878;2023-02-24T06:38:35;4.78;118.99
67358;HTU21D;54240;51.096;5.878;2023-02-24T06:41:02;4.82;118.99
67358;HTU21D;54240;51.096;5.878;2023-02-24T06:43:29;4.84;118.99
67358;HTU21D;54240;51.096;5.878;2023-02-24T06:45:55;4.88;118.99
67358;HTU21D;54240;51.096;5.878;2023-02-24T06:48:21;4.89;118.99
67358;HTU21D;54240;51.096;5.878;2023-02-24T06:50:48;4.94;118.99
67358;HTU21D;54240;51.096;5.878;2023-02-24T06:53:15;4.96;118.99
67358;HTU21D;54240;51.096;5.878;2023-02-24T06:55:45;4.92;118.99
67358;HTU21D;54240;51.096;5.878;2023-02-24T06:58:18;4.88;118.99
67358;HTU21D;54240;51.096;5.878;2023-02-24T07:00:45;4.68;118.99
67358;HTU21D;54240;51.096;5.878;2023-02-24T07:03:31;4.74;118.99
67358;HTU21D;54240;51.096;5.878;2023-02-24T07:06:16;4.76;118.99
67358;HTU21D;54240;51.096;5.878;2023-02-24T07:08:46;4.76;118.99
67358;HTU21D;54240;51.096;5.878;2023-02-24T07:11:12;4.73;118.99
67358;HTU21D;54240;51.096;5.878;2023-02-24T07:13:39;4.76;118.99
67358;HTU21D;54240;51.096;5.878;2023-02-24T07:16:05;4.73;118.99
67358;HTU21D;54240;51.096;5.878;2023-02-24T07:18:32;4.75;118.99
67358;HTU21D;54240;51.096;5.878;2023-02-24T07:21:04;4.79;118.99
67358;HTU21D;54240;51.096;5.878;2023-02-24T07:23:40;4.76;118.99
67358;HTU21D;54240;51.096;5.878;2023-02-24T07:26:13;4.77;118.99
67358;HTU21D;54240;51.096;5.878;2023-02-24T07:28:42;4.78;118.99
67358;HTU21D;54240;51.096;5.878;2023-02-24T07:31:11;4.83;118.99
67358;HTU21D;54240;51.096;5.878;2023-02-24T07:33:40;4.83;118.99
67358;HTU21D;54240;51.096;5.878;2023-02-24T07:36:12;4.75;118.99
67358;HTU21D;54240;51.096;5.878;2023-02-24T07:38:41;4.75;118.99
67358;HTU21D;54240;51.096;5.878;2023-02-24T07:41:08;4.79;118.99
67358;HTU21D;54240;51.096;5.878;2023-02-24T07:43:40;4.79;118.99
67358;HTU21D;54240;51.096;5.878;2023-02-24T07:46:14;4.81;118.99
67358;HTU21D;54240;51.096;5.878;2023-02-24T07:48:41;4.80;118.99
67358;HTU21D;54240;51.096;5.878;2023-02-24T07:51:12;4.75;118.99
67358;HTU21D;54240;51.096;5.878;2023-02-24T07:53:40;4.83;118.99
67358;HTU21D;54240;51.096;5.878;2023-02-24T07:56:10;4.89;118.99
67358;HTU21D;54240;51.096;5.878;2023-02-24T07:58:47;4.92;118.99
67358;HTU21D;54240;51.096;5.878;2023-02-24T08:01:18;5.02;118.99
67358;HTU21D;54240;51.096;5.878;2023-02-24T08:03:51;5.04;118.99
67358;HTU21D;54240;51.096;5.878;2023-02-24T08:06:21;5.06;118.99
67358;HTU21D;54240;51.096;5.878;2023-02-24T08:09:07;5.08;118.99
67358;HTU21D;54240;51.096;5.878;2023-02-24T08:14:27;5.03;118.99
67358;HTU21D;54240;51.096;5.878;2023-02-24T08:17:02;5.20;118.99
67358;HTU21D;54240;51.096;5.878;2023-02-24T08:19:32;5.20;118.99
67358;HTU21D;54240;51.096;5.878;2023-02-24T08:22:09;5.31;118.99
67358;HTU21D;54240;51.096;5.878;2023-02-24T08:24:46;5.35;118.99
67358;HTU21D;54240;51.096;5.878;2023-02-24T08:27:16;5.23;118.99
67358;HTU21D;54240;51.096;5.878;2023-02-24T08:29:48;5.34;118.99
67358;HTU21D;54240;51.096;5.878;2023-02-24T08:32:31;5.34;118.99
67358;HTU21D;54240;51.096;5.878;2023-02-24T08:35:29;5.33;118.99
67358;HTU21D;54240;51.096;5.878;2023-02-24T08:38:15;5.43;118.99
67358;HTU21D;54240;51.096;5.878;2023-02-24T08:40:45;5.40;118.99
67358;HTU21D;54240;51.096;5.878;2023-02-24T08:43:26;5.52;118.99
67358;HTU21D;54240;51.096;5.878;2023-02-24T08:48:55;5.51;118.99
67358;HTU21D;54240;51.096;5.878;2023-02-24T08:51:32;5.64;118.99
67358;HTU21D;54240;51.096;5.878;2023-02-24T08:54:01;5.71;118.99
67358;HTU21D;54240;51.096;5.878;2023-02-24T08:56:30;5.69;118.99
67358;HTU21D;54240;51.096;5.878;2023-02-24T08:59:04;5.63;118.99
67358;HTU21D;54240;51.096;5.878;2023-02-24T09:01:37;5.66;118.99
67358;HTU21D;54240;51.096;5.878;2023-02-24T09:04:12;5.72;118.99
67358;HTU21D;54240;51.096;5.878;2023-02-24T09:06:50;5.92;118.99
67358;HTU21D;54240;51.096;5.878;2023-02-24T09:09:23;5.96;118.99
67358;HTU21D;54240;51.096;5.878;2023-02-24T09:11:58;6.25;118.99
67358;HTU21D;54240;51.096;5.878;2023-02-24T09:14:32;6.68;118.99
67358;HTU21D;54240;51.096;5.878;2023-02-24T09:17:03;6.80;118.99
67358;HTU21D;54240;51.096;5.878;2023-02-24T09:19:42;6.46;13.15
67358;HTU21D;54240;51.096;5.878;2023-02-24T09:22:17;6.29;23.39
67358;HTU21D;54240;51.096;5.878;2023-02-24T09:25:11;6.36;108.15
67358;HTU21D;54240;51.096;5.878;2023-02-24T09:28:05;6.23;85.87
67358;HTU21D;54240;51.096;5.878;2023-02-24T09:30:34;6.51;-6.00
67358;HTU21D;54240;51.096;5.878;2023-02-24T09:35:30;6.36;-6.00
67358;HTU21D;54240;51.096;5.878;2023-02-24T09:38:03;6.72;41.09
67358;HTU21D;54240;51.096;5.878;2023-02-24T09:40:32;6.79;6.39
67358;HTU21D;54240;51.096;5.878;2023-02-24T09:43:24;6.72;-6.00
67358;HTU21D;54240;51.096;5.878;2023-02-24T09:46:05;6.50;-6.00
67358;HTU21D;54240;51.096;5.878;2023-02-24T09:48:55;6.71;-6.00
67358;HTU21D;54240;51.096;5.878;2023-02-24T09:51:32;6.56;-6.00
67358;HTU21D;54240;51.096;5.878;2023-02-24T09:54:16;6.56;-6.00
67358;HTU21D;54240;51.096;5.878;2023-02-24T09:56:57;6.55;-6.00
67358;HTU21D;54240;51.096;5.878;2023-02-24T09:59:55;6.60;-6.00
67358;HTU21D;54240;51.096;5.878;2023-02-24T10:03:07;6.74;-6.00
67358;HTU21D;54240;51.096;5.878;2023-02-24T10:06:04;6.59;-6.00
67358;HTU21D;54240;51.096;5.878;2023-02-24T10:08:45;6.52;-6.00
67358;HTU21D;54240;51.096;5.878;2023-02-24T10:11:15;6.54;-6.00
67358;HTU21D;54240;51.096;5.878;2023-02-24T10:13:48;6.52;-6.00
67358;HTU21D;54240;51.096;5.878;2023-02-24T10:16:20;6.33;-6.00
67358;HTU21D;54240;51.096;5.878;2023-02-24T10:18:51;6.44;-6.00
67358;HTU21D;54240;51.096;5.878;2023-02-24T10:24:41;6.46;-6.00
67358;HTU21D;54240;51.096;5.878;2023-02-24T10:27:18;6.54;-6.00
67358;HTU21D;54240;51.096;5.878;2023-02-24T10:30:08;6.50;-6.00
67358;HTU21D;54240;51.096;5.878;2023-02-24T10:32:52;6.12;-6.00
67358;HTU21D;54240;51.096;5.878;2023-02-24T10:35:25;6.29;-6.00
67358;HTU21D;54240;51.096;5.878;2023-02-24T10:37:59;6.36;-6.00
67358;HTU21D;54240;51.096;5.878;2023-02-24T10:40:52;6.40;-6.00
67358;HTU21D;54240;51.096;5.878;2023-02-24T10:43:24;6.25;-6.00
67358;HTU21D;54240;51.096;5.878;2023-02-24T10:45:59;6.25;-6.00
67358;HTU21D;54240;51.096;5.878;2023-02-24T10:48:56;6.23;-6.00
67358;HTU21D;54240;51.096;5.878;2023-02-24T10:51:30;6.19;-6.00
67358;HTU21D;54240;51.096;5.878;2023-02-24T10:57:04;6.37;-6.00
67358;HTU21D;54240;51.096;5.878;2023-02-24T10:59:53;6.33;-6.00
67358;HTU21D;54240;51.096;5.878;2023-02-24T11:02:37;6.26;-6.00
67358;HTU21D;54240;51.096;5.878;2023-02-24T11:05:44;6.40;-6.00
67358;HTU21D;54240;51.096;5.878;2023-02-24T11:08:35;6.41;-6.00
67358;HTU21D;54240;51.096;5.878;2023-02-24T11:13:51;6.13;-6.00
67358;HTU21D;54240;51.096;5.878;2023-02-24T11:16:43;6.23;12.59
67358;HTU21D;54240;51.096;5.878;2023-02-24T11:19:30;6.00;55.58
67358;HTU21D;54240;51.096;5.878;2023-02-24T11:21:59;6.11;53.05
67358;HTU21D;54240;51.096;5.878;2023-02-24T11:24:27;6.07;78.20
67358;HTU21D;54240;51.096;5.878;2023-02-24T11:26:53;6.06;68.41
67358;HTU21D;54240;51.096;5.878;2023-02-24T11:32:23;5.81;118.99
67358;HTU21D;54240;51.096;5.878;2023-02-24T11:34:57;6.04;112.16
67358;HTU21D;54240;51.096;5.878;2023-02-24T11:40:36;6.14;107.71
67358;HTU21D;54240;51.096;5.878;2023-02-24T11:43:26;6.17;109.78
67358;HTU21D;54240;51.096;5.878;2023-02-24T11:46:06;6.23;113.03
67358;HTU21D;54240;51.096;5.878;2023-02-24T11:48:43;6.30;108.95
67358;HTU21D;54240;51.096;5.878;2023-02-24T11:51:19;6.23;94.33
67358;HTU21D;54240;51.096;5.878;2023-02-24T11:53:54;6.21;115.70
67358;HTU21D;54240;51.096;5.878;2023-02-24T12:06:39;6.49;96.88
67358;HTU21D;54240;51.096;5.878;2023-02-24T12:09:18;6.56;86.68
67358;HTU21D;54240;51.096;5.878;2023-02-24T12:11:57;6.40;94.20
67358;HTU21D;54240;51.096;5.878;2023-02-24T12:14:27;6.46;105.49
67358;HTU21D;54240;51.096;5.878;2023-02-24T12:17:09;6.66;78.78
67358;HTU21D;54240;51.096;5.878;2023-02-24T12:19:58;6.51;110.84
67358;HTU21D;54240;51.096;5.878;2023-02-24T12:22:34;6.45;103.20
67358;HTU21D;54240;51.096;5.878;2023-02-24T12:25:10;6.35;107.24
67358;HTU21D;54240;51.096;5.878;2023-02-24T12:28:03;6.52;110.58
67358;HTU21D;54240;51.096;5.878;2023-02-24T12:30:44;6.42;118.99
67358;HTU21D;54240;51.096;5.878;2023-02-24T12:39:20;6.49;118.99
67358;HTU21D;54240;51.096;5.878;2023-02-24T12:41:57;6.42;116.86
67358;HTU21D;54240;51.096;5.878;2023-02-24T12:44:25;6.54;118.99
67358;HTU21D;54240;51.096;5.878;2023-02-24T12:58:27;6.64;67.81
67358;HTU21D;54240;51.096;5.878;2023-02-24T13:14:38;6.64;118.99
67358;HTU21D;54240;51.096;5.878;2023-02-24T13:19:38;6.66;118.99
67358;HTU21D;54240;51.096;5.878;2023-02-24T13:22:29;6.57;118.99
67358;HTU21D;54240;51.096;5.878;2023-02-24T13:25:11;6.46;118.99
67358;HTU21D;54240;51.096;5.878;2023-02-24T13:27:42;6.53;118.99
67358;HTU21D;54240;51.096;5.878;2023-02-24T13:32:45;6.68;118.99
67358;HTU21D;54240;51.096;5.878;2023-02-24T13:37:42;6.67;118.99
67358;HTU21D;54240;51.096;5.878;2023-02-24T13:42:56;6.83;118.99
67358;HTU21D;54240;51.096;5.878;2023-02-24T13:58:50;6.40;118.99
67358;HTU21D;54240;51.096;5.878;2023-02-24T14:01:21;6.48;118.99
67358;HTU21D;54240;51.096;5.878;2023-02-24T14:04:11;6.61;118.99
67358;HTU21D;54240;51.096;5.878;2023-02-24T14:06:39;6.60;118.99
67358;HTU21D;54240;51.096;5.878;2023-02-24T14:09:06;6.66;118.99
67358;HTU21D;54240;51.096;5.878;2023-02-24T14:11:35;6.80;118.99
67358;HTU21D;54240;51.096;5.878;2023-02-24T14:14:02;6.81;118.99
67358;HTU21D;54240;51.096;5.878;2023-02-24T14:16:32;6.69;118.99
67358;HTU21D;54240;51.096;5.878;2023-02-24T14:19:02;6.66;118.99
67358;HTU21D;54240;51.096;5.878;2023-02-24T14:21:31;6.69;118.99
67358;HTU21D;54240;51.096;5.878;2023-02-24T14:24:03;6.61;118.99
67358;HTU21D;54240;51.096;5.878;2023-02-24T14:26:51;6.37;118.99
67358;HTU21D;54240;51.096;5.878;2023-02-24T14:29:24;6.35;118.99
67358;HTU21D;54240;51.096;5.878;2023-02-24T14:31:54;6.46;118.99
67358;HTU21D;54240;51.096;5.878;2023-02-24T14:34:24;6.42;118.99
67358;HTU21D;54240;51.096;5.878;2023-02-24T14:36:54;6.43;118.99
67358;HTU21D;54240;51.096;5.878;2023-02-24T14:39:26;6.30;118.99
67358;HTU21D;54240;51.096;5.878;2023-02-24T14:42:23;6.68;118.99
67358;HTU21D;54240;51.096;5.878;2023-02-24T14:44:52;6.57;118.99
67358;HTU21D;54240;51.096;5.878;2023-02-24T14:47:21;6.53;118.99
67358;HTU21D;54240;51.096;5.878;2023-02-24T14:49:55;6.46;118.99
67358;HTU21D;54240;51.096;5.878;2023-02-24T14:52:26;6.50;118.99
67358;HTU21D;54240;51.096;5.878;2023-02-24T15:00:20;6.20;118.99
67358;HTU21D;54240;51.096;5.878;2023-02-24T15:05:39;6.29;118.99
67358;HTU21D;54240;51.096;5.878;2023-02-24T15:10:50;6.14;118.99
67358;HTU21D;54240;51.096;5.878;2023-02-24T15:13:34;6.16;118.99
67358;HTU21D;54240;51.096;5.878;2023-02-24T15:16:28;6.20;118.99
67358;HTU21D;54240;51.096;5.878;2023-02-24T15:18:59;6.04;118.99
67358;HTU21D;54240;51.096;5.878;2023-02-24T15:21:39;5.98;118.99
67358;HTU21D;54240;51.096;5.878;2023-02-24T15:24:30;6.15;118.99
67358;HTU21D;54240;51.096;5.878;2023-02-24T15:27:14;6.17;118.99
67358;HTU21D;54240;51.096;5.878;2023-02-24T15:30:06;6.02;118.99
67358;HTU21D;54240;51.096;5.878;2023-02-24T15:32:35;5.98;118.99
67358;HTU21D;54240;51.096;5.878;2023-02-24T15:35:03;6.26;118.99
67358;HTU21D;54240;51.096;5.878;2023-02-24T15:37:41;6.38;118.99
67358;HTU21D;54240;51.096;5.878;2023-02-24T15:40:20;6.21;118.99
67358;HTU21D;54240;51.096;5.878;2023-02-24T15:42:57;6.27;118.99
67358;HTU21D;54240;51.096;5.878;2023-02-24T15:45:32;6.34;118.99
67358;HTU21D;54240;51.096;5.878;2023-02-24T15:48:01;6.33;118.99
67358;HTU21D;54240;51.096;5.878;2023-02-24T15:50:29;6.30;118.99
67358;HTU21D;54240;51.096;5.878;2023-02-24T15:52:59;5.94;118.99
67358;HTU21D;54240;51.096;5.878;2023-02-24T15:55:28;6.13;118.99
67358;HTU21D;54240;51.096;5.878;2023-02-24T15:57:57;6.17;118.99
67358;HTU21D;54240;51.096;5.878;2023-02-24T16:00:24;6.11;118.99
67358;HTU21D;54240;51.096;5.878;2023-02-24T16:02:50;6.12;118.99
67358;HTU21D;54240;51.096;5.878;2023-02-24T16:05:16;6.27;118.99
67358;HTU21D;54240;51.096;5.878;2023-02-24T16:07:44;6.35;118.99
67358;HTU21D;54240;51.096;5.878;2023-02-24T16:10:19;6.51;118.99
67358;HTU21D;54240;51.096;5.878;2023-02-24T16:12:52;6.56;118.99
67358;HTU21D;54240;51.096;5.878;2023-02-24T16:15:31;6.52;118.99
67358;HTU21D;54240;51.096;5.878;2023-02-24T16:17:59;6.73;118.99
67358;HTU21D;54240;51.096;5.878;2023-02-24T16:20:29;6.68;118.99
67358;HTU21D;54240;51.096;5.878;2023-02-24T16:23:03;6.65;118.99
67358;HTU21D;54240;51.096;5.878;2023-02-24T16:25:42;6.56;118.99
67358;HTU21D;54240;51.096;5.878;2023-02-24T16:28:16;6.66;118.99
67358;HTU21D;54240;51.096;5.878;2023-02-24T16:30:43;6.86;118.99
67358;HTU21D;54240;51.096;5.878;2023-02-24T16:33:14;6.71;118.99
67358;HTU21D;54240;51.096;5.878;2023-02-24T16:35:42;6.55;118.99
67358;HTU21D;54240;51.096;5.878;2023-02-24T16:38:14;6.50;118.99
67358;HTU21D;54240;51.096;5.878;2023-02-24T16:40:43;6.59;118.99
67358;HTU21D;54240;51.096;5.878;2023-02-24T16:43:10;6.65;118.99
67358;HTU21D;54240;51.096;5.878;2023-02-24T16:45:39;6.60;118.99
67358;HTU21D;54240;51.096;5.878;2023-02-24T16:48:12;6.61;118.99
67358;HTU21D;54240;51.096;5.878;2023-02-24T16:50:42;6.60;118.99
67358;HTU21D;54240;51.096;5.878;2023-02-24T16:53:14;6.51;118.99
67358;HTU21D;54240;51.096;5.878;2023-02-24T16:55:40;6.37;118.99
67358;HTU21D;54240;51.096;5.878;2023-02-24T16:58:11;6.48;118.99
67358;HTU21D;54240;51.096;5.878;2023-02-24T17:00:38;6.26;118.99
67358;HTU21D;54240;51.096;5.878;2023-02-24T17:03:17;5.95;118.99
67358;HTU21D;54240;51.096;5.878;2023-02-24T17:05:44;5.69;118.99
67358;HTU21D;54240;51.096;5.878;2023-02-24T17:08:10;5.86;118.99
67358;HTU21D;54240;51.096;5.878;2023-02-24T17:10:38;5.72;118.99
67358;HTU21D;54240;51.096;5.878;2023-02-24T17:13:05;5.64;118.99
67358;HTU21D;54240;51.096;5.878;2023-02-24T17:15:31;5.85;118.99
67358;HTU21D;54240;51.096;5.878;2023-02-24T17:17:57;5.75;118.99
67358;HTU21D;54240;51.096;5.878;2023-02-24T17:20:23;5.89;118.99
67358;HTU21D;54240;51.096;5.878;2023-02-24T17:22:49;5.95;118.99
67358;HTU21D;54240;51.096;5.878;2023-02-24T17:25:22;5.90;118.99
67358;HTU21D;54240;51.096;5.878;2023-02-24T17:27:49;5.83;118.99
67358;HTU21D;54240;51.096;5.878;2023-02-24T17:30:20;6.01;118.99
67358;HTU21D;54240;51.096;5.878;2023-02-24T17:32:45;6.10;118.99
67358;HTU21D;54240;51.096;5.878;2023-02-24T17:35:12;6.16;118.99
67358;HTU21D;54240;51.096;5.878;2023-02-24T17:37:38;6.25;118.99
67358;HTU21D;54240;51.096;5.878;2023-02-24T17:40:05;6.17;118.99
67358;HTU21D;54240;51.096;5.878;2023-02-24T17:42:31;5.89;118.99
67358;HTU21D;54240;51.096;5.878;2023-02-24T17:44:57;5.96;118.99
67358;HTU21D;54240;51.096;5.878;2023-02-24T17:47:24;6.02;118.99
67358;HTU21D;54240;51.096;5.878;2023-02-24T17:49:50;5.85;118.99
67358;HTU21D;54240;51.096;5.878;2023-02-24T17:52:16;5.87;118.99
67358;HTU21D;54240;51.096;5.878;2023-02-24T17:54:42;5.79;118.99
67358;HTU21D;54240;51.096;5.878;2023-02-24T17:57:08;5.83;118.99
67358;HTU21D;54240;51.096;5.878;2023-02-24T17:59:37;5.92;118.99